Data for 07/22/2013

Time Sea-Level Adjusted Pressure Absolute Pressure Temperature Relative Humidity Dew Point   
(mb) (inHg) (mb) (inHg) (C) (F) (%) (C) (F)
00:05 1016 30 846 24.98 21.8 71.3 32 4.7 40.4
00:10 1017 30.03 846 24.98 21.8 71.2 32 4.8 40.6
00:15 1017 30.03 846 24.98 21.6 70.9 33 4.9 40.8
00:20 1017 30.03 846 24.98 21.3 70.3 34 4.8 40.6
00:25 1017 30.03 846 24.98 21.1 70 34 4.7 40.5
00:30 1017 30.03 846 24.98 20.8 69.4 34 4.7 40.4
00:35 1017 30.03 846 24.98 20.4 68.8 36 4.8 40.7
00:40 1017 30.03 846 24.98 20.4 68.6 36 4.9 40.8
00:45 1017 30.03 846 24.98 20.4 68.6 36 4.9 40.8
00:50 1017 30.03 846 24.98 20.4 68.7 36 5.1 41.2
00:55 1017 30.03 846 24.98 20.3 68.5 37 5.2 41.4
01:00 1017 30.03 846 24.98 20.2 68.3 37 5.1 41.3
01:05 1017 30.03 846 24.98 20 68.1 37 5.1 41.2
01:10 1017 30.03 846 24.98 19.9 67.8 38 5.1 41.2
01:15 1017 30.03 846 24.98 19.7 67.4 38 5.2 41.4
01:20 1017 30.03 846 24.98 19.4 66.9 40 5.5 41.8
01:25 1017 30.03 846 24.98 19.1 66.5 40 5.3 41.5
01:30 1017 30.03 846 24.98 19.1 66.3 40 5.4 41.7
01:35 1017 30.03 846 24.98 18.9 66.1 41 5.4 41.8
01:40 1017 30.03 846 24.98 18.9 65.9 41 5.4 41.7
01:45 1017 30.03 846 24.98 18.7 65.6 42 5.5 41.9
01:50 1017 30.03 846 24.98 18 64.5 35 2.6 36.7
01:55 1017 30.03 846 24.98 17 62.6 43 4.4 39.9
02:00 1017 30.03 846 24.98 17.5 63.5 41 4.4 39.9
02:05 1017 30.03 846 24.98 17.1 62.8 35 1.8 35.3
02:10 1017 30.03 846 24.98 16.4 61.5 36 1.6 34.8
02:15 1017 30.03 846 24.98 16.2 61.1 37 1.5 34.8
02:20 1017 30.03 846 24.98 15.9 60.5 34 -0 32
02:25 1017 30.03 846 24.98 15.7 60.2 37 1.2 34.1
02:30 1017 30.03 846 24.98 15.7 60.2 40 2.2 35.9
02:35 1017 30.03 846 24.98 15.8 60.5 46 4.3 39.7
02:40 1017 30.03 846 24.98 16.2 61.2 43 3.9 39
02:45 1017 30.03 846 24.98 16.2 61.1 43 3.8 38.9
02:50 1017 30.03 846 24.98 15.5 60 43 3 37.3
02:55 1017 30.03 846 24.98 15.3 59.6 42 2.6 36.7
03:00 1017 30.03 846 24.98 15.5 59.8 47 4.2 39.5
03:05 1017 30.03 846 24.98 15.7 60.3 44 3.5 38.3
03:10 1017 30.03 846 24.98 16.2 61.1 46 4.7 40.5
03:15 1017 30.03 846 24.98 16.9 62.4 45 5.1 41.2
03:20 1017 30.03 846 24.98 17 62.6 46 5.3 41.6
03:25 1017 30.03 846 24.98 16.9 62.4 46 5.3 41.6
03:30 1017 30.03 846 24.98 16.5 61.7 47 5.3 41.5
03:35 1017 30.03 846 24.98 15.6 60 51 5.5 41.8
03:40 1017 30.03 846 24.98 15.1 59.1 50 4.9 40.8
03:45 1017 30.03 846 24.98 14.9 58.8 50 4.8 40.6
03:50 1017 30.03 846 24.98 14.8 58.7 50 4.5 40.1
03:55 1017 30.03 846 24.98 14.8 58.7 49 4.4 39.9
04:00 1017 30.03 846 24.98 14.9 58.8 49 4.4 39.9
04:05 1017 30.03 846 24.98 14.9 58.9 49 4.3 39.7
04:10 1017 30.03 846 24.98 14.8 58.7 46 3.5 38.3
04:15 1017 30.03 846 24.98 14.8 58.6 46 3.3 38
04:20 1017 30.03 846 24.98 14.8 58.7 47 3.7 38.6
04:25 1017 30.03 846 24.98 14.9 58.8 49 4.2 39.6
04:30 1017 30.03 846 24.98 14.9 58.8 49 4.4 39.9
04:35 1017 30.03 846 24.98 14.9 58.9 51 4.9 40.8
04:40 1017 30.03 846 24.98 14.8 58.6 50 4.5 40.1
04:45 1017 30.03 846 24.98 14.7 58.4 49 4.3 39.7
04:50 1017 30.03 846 24.98 14.7 58.5 51 4.9 40.8
04:55 1017 30.03 846 24.98 14.8 58.6 50 4.5 40.2
05:00 1017 30.03 846 24.98 15 59.1 51 5 41
05:05 1017 30.03 846 24.98 15.2 59.3 50 5 41.1
05:10 1017 30.03 846 24.98 15.2 59.3 51 5.2 41.4
05:15 1017 30.03 846 24.98 15.3 59.5 52 5.5 41.8
05:20 1017 30.03 846 24.98 15.3 59.5 49 4.8 40.7
05:25 1017 30.03 846 24.98 15.6 60.1 50 5.5 41.8
05:30 1017 30.03 846 24.98 15.8 60.5 48 4.8 40.7
05:35 1017 30.03 846 24.98 15.7 60.3 46 4.3 39.7
05:40 1017 30.03 846 24.98 15.7 60.2 44 3.5 38.2
05:45 1017 30.03 847 25.01 15.6 60 44 3.5 38.3
05:50 1017 30.03 847 25.01 15.5 59.9 43 3.1 37.7
05:55 1017 30.03 847 25.01 15.4 59.7 44 3.3 38
06:00 1017 30.03 847 25.01 15.3 59.5 44 3.2 37.8
06:05 1017 30.03 847 25.01 15.3 59.5 37 0.9 33.6
06:10 1017 30.03 847 25.01 15.7 60.3 38 1.6 34.9
06:15 1017 30.03 847 25.01 16.1 61.1 38 1.9 35.5
06:20 1017 30.03 847 25.01 16.4 61.5 39 2.6 36.7
06:25 1017 30.03 847 25.01 16.7 62.1 39 2.7 36.8
06:30 1017 30.03 847 25.01 17.1 62.7 40 3.5 38.2
06:35 1017 30.03 847 25.01 17.3 63.1 41 4 39.2
06:40 1017 30.03 847 25.01 17.5 63.4 40 3.9 39
06:45 1017 30.03 847 25.01 17.7 63.8 42 4.6 40.2
06:50 1017 30.03 847 25.01 17.8 64 41 4.4 40
06:55 1018 30.06 847 25.01 17.9 64.3 41 4.6 40.2
07:00 1018 30.06 847 25.01 18.3 64.9 39 4.2 39.5
07:05 1018 30.06 847 25.01 18.7 65.6 39 4.5 40.1
07:10 1018 30.06 847 25.01 18.9 66 39 4.6 40.3
07:15 1018 30.06 847 25.01 19 66.1 37 4.1 39.3
07:20 1018 30.06 847 25.01 19.1 66.4 39 4.9 40.9
07:25 1018 30.06 847 25.01 19.9 67.8 37 4.8 40.7
07:30 1018 30.06 847 25.01 20.6 69.1 34 4.3 39.7
07:35 1018 30.06 847 25.01 20.8 69.4 34 4.6 40.4
07:40 1018 30.06 847 25.01 21 69.7 37 5.8 42.4
07:45 1018 30.06 847 25.01 21.2 70.2 36 5.5 42
07:50 1018 30.06 847 25.01 21.6 70.8 32 4.2 39.6
07:55 1018 30.06 847 25.01 21.5 70.7 32 4.5 40.1
08:00 1018 30.06 847 25.01 22.4 72.3 31 4.6 40.3
08:05 1018 30.06 847 25.01 22.6 72.6 29 3.6 38.5
08:10 1018 30.06 847 25.01 23.2 73.7 25 2.3 36.1
08:15 1018 30.06 847 25.01 23.1 73.7 27 3.2 37.8
08:20 1018 30.06 847 25.01 23.5 74.3 26 3.3 38
08:25 1018 30.06 847 25.01 23.7 74.6 26 3.1 37.6
08:30 1018 30.06 847 25.01 24 75.1 21 0.7 33.3
08:35 1018 30.06 847 25.01 23.5 74.2 22 0.8 33.4
08:40 1018 30.06 847 25.01 23.3 74 23 1 33.9
08:45 1018 30.06 847 25.01 23.9 74.9 21 0.7 33.3
08:50 1018 30.06 847 25.01 24.4 75.9 23 2 35.6
08:55 1018 30.06 847 25.01 25.3 77.5 20 0.9 33.6
09:00 1018 30.06 847 25.01 25.4 77.7 20 1 33.9
09:05 1018 30.06 847 25.01 25.3 77.6 20 0.7 33.3
09:10 1018 30.06 847 25.01 25.5 77.9 20 1.3 34.4
09:15 1018 30.06 847 25.01 25.1 77.2 19 -0 32
09:20 1018 30.06 847 25.01 25.1 77.2 18 -0.4 31.3
09:25 1018 30.06 847 25.01 25.3 77.5 19 0.5 32.9
09:30 1018 30.06 847 25.01 25.3 77.6 20 1.2 34.1
09:35 1018 30.06 847 25.01 25.2 77.4 20 0.8 33.5
09:40 1018 30.06 847 25.01 25.3 77.6 19 0.6 33.1
09:45 1018 30.06 847 25.01 25.8 78.4 18 0 32.1
09:50 1018 30.06 847 25.01 25.6 78.2 18 -0.2 31.6
09:55 1018 30.06 847 25.01 25.5 77.9 18 -0 32
10:00 1018 30.06 847 25.01 25.8 78.5 19 0.7 33.2
10:05 1018 30.06 847 25.01 26 78.8 18 0.3 32.5
10:10 1018 30.06 847 25.01 26.3 79.4 18 0 32.1
10:15 1018 30.06 847 25.01 26.7 80 17 -0.2 31.7
10:20 1018 30.06 847 25.01 26.9 80.4 18 0.9 33.6
10:25 1018 30.06 847 25.01 26.8 80.3 19 1.4 34.6
10:30 1018 30.06 847 25.01 26.9 80.4 19 1.8 35.2
10:35 1018 30.06 847 25.01 27.1 80.8 18 0.9 33.6
10:40 1018 30.06 847 25.01 27.3 81.1 17 0.3 32.6
10:45 1018 30.06 847 25.01 27.7 81.8 17 0.9 33.5
10:50 1018 30.06 847 25.01 27.6 81.7 17 0.4 32.8
10:55 1018 30.06 847 25.01 27.9 82.2 15 -1.1 30
11:00 1018 30.06 847 25.01 27.2 80.9 16 -0.1 31.8
11:05 1018 30.06 847 25.01 27.3 81.1 16 -0.7 30.7
11:10 1018 30.06 847 25.01 27.1 80.8 15 -1.5 29.3
11:15 1018 30.06 847 25.01 26.7 80.1 16 -1 30.2
11:20 1018 30.06 847 25.01 27.4 81.3 15 -1.6 29.1
11:25 1018 30.06 847 25.01 26.8 80.2 15 -1.5 29.2
11:30 1018 30.06 847 25.01 27.8 82 15 -1.3 29.6
11:35 1018 30.06 847 25.01 28.3 82.9 16 0.7 33.2
11:40 1018 30.06 847 25.01 28 82.4 17 0.9 33.6
11:45 1017 30.03 847 25.01 28.1 82.5 15 -0.5 31.1
11:50 1017 30.03 847 25.01 28.4 83.1 15 -0.3 31.4
11:55 1017 30.03 847 25.01 28.2 82.7 15 -0.2 31.6
12:00 1017 30.03 847 25.01 29.3 84.8 13 -1.6 29.2
12:05 1017 30.03 847 25.01 29.4 84.8 14 -1 30.2
12:10 1017 30.03 847 25.01 29.6 85.2 14 -0.2 31.7
12:15 1017 30.03 847 25.01 29.3 84.8 13 -1.5 29.3
12:20 1017 30.03 847 25.01 29.6 85.3 13 -1.3 29.7
12:25 1017 30.03 847 25.01 30.3 86.6 13 -0.7 30.7
12:30 1017 30.03 847 25.01 29.1 84.4 13 -1.3 29.7
12:35 1017 30.03 847 25.01 28.9 84.1 13 -1.5 29.3
12:40 1017 30.03 847 25.01 29.7 85.5 13 -1.1 30
12:45 1017 30.03 846 24.98 30.4 86.7 13 -1 30.2
12:50 1017 30.03 846 24.98 30.3 86.5 12 -1.4 29.5
12:55 1017 30.03 846 24.98 30.1 86.1 13 -1.2 29.8
13:00 1017 30.03 846 24.98 29.9 85.7 13 -1.7 28.9
13:05 1017 30.03 846 24.98 29.9 85.8 13 -1.4 29.5
13:10 1017 30.03 846 24.98 30.4 86.6 13 -1.2 29.8
13:15 1017 30.03 846 24.98 30.8 87.4 11 -2.3 27.9
13:20 1017 30.03 846 24.98 30.6 87 13 -0.7 30.8
13:25 1017 30.03 846 24.98 30.2 86.3 12 -2 28.4
13:30 1017 30.03 846 24.98 30.4 86.7 12 -1.4 29.5
13:35 1017 30.03 846 24.98 30.3 86.6 12 -2 28.4
13:40 1017 30.03 846 24.98 30.8 87.4 12 -1.7 29
13:45 1017 30.03 846 24.98 31.2 88.2 12 -1.6 29.1
13:50 1017 30.03 846 24.98 31.5 88.7 11 -2.7 27.1
13:55 1017 30.03 846 24.98 30.8 87.4 11 -2.9 26.8
14:00 1017 30.03 846 24.98 30.8 87.5 11 -2.8 26.9
14:05 1017 30.03 846 24.98 31.3 88.3 11 -2.6 27.2
14:10 1017 30.03 846 24.98 31.1 88 11 -2 28.4
14:15 1017 30.03 846 24.98 31.3 88.4 11 -1.8 28.7
14:20 1017 30.03 846 24.98 31.2 88.2 10 -3.6 25.5
14:25 1017 30.03 846 24.98 31.2 88.2 10 -3.7 25.3
14:30 1017 30.03 846 24.98 32.1 89.7 11 -2.2 28
14:35 1017 30.03 846 24.98 31.7 89.1 11 -2.1 28.1
14:40 1017 30.03 846 24.98 31.4 88.5 11 -2.5 27.5
14:45 1017 30.03 846 24.98 32.5 90.5 10 -2.5 27.5
14:50 1017 30.03 846 24.98 32 89.5 11 -2.4 27.7
14:55 1017 30.03 846 24.98 32 89.5 11 -2.3 27.8
15:00 1017 30.03 846 24.98 32.5 90.4 9 -4 24.7
15:05 1016 30 846 24.98 32.4 90.3 10 -2.6 27.3
15:10 1016 30 846 24.98 32.4 90.3 10 -2.5 27.5
15:15 1016 30 846 24.98 32.5 90.6 10 -2.7 27.1
15:20 1016 30 846 24.98 32.7 90.9 9 -3.4 25.8
15:25 1016 30 845 24.95 32.3 90.1 10 -3.1 26.5
15:30 1016 30 845 24.95 32.5 90.5 10 -2.5 27.5
15:35 1016 30 845 24.95 32.3 90.2 9 -3.6 25.5
15:40 1016 30 845 24.95 32.3 90.2 9 -3.5 25.7
15:45 1016 30 845 24.95 32.1 89.8 9 -4.3 24.2
15:50 1016 30 845 24.95 32.2 89.9 9 -4 24.7
15:55 1016 30 845 24.95 32.4 90.3 9 -4.7 23.5
16:00 1016 30 845 24.95 32.2 89.9 8 -6.3 20.6
16:05 1016 30 845 24.95 32.1 89.7 8 -6.6 20.2
16:10 1016 30 845 24.95 32.2 90 8 -5.1 22.8
16:15 1016 30 845 24.95 32 89.7 8 -5.2 22.6
16:20 1016 30 845 24.95 31.8 89.2 9 -4.7 23.5
16:25 1016 30 845 24.95 31.8 89.2 8 -5.4 22.2
16:30 1016 30 845 24.95 31.4 88.5 8 -5.9 21.4
16:35 1016 30 845 24.95 31.5 88.8 8 -5.8 21.6
16:40 1016 30 845 24.95 31.7 89 8 -6.2 20.9
16:45 1016 30 845 24.95 31.3 88.3 9 -5.7 21.7
16:50 1016 30 845 24.95 31.2 88.1 9 -5.5 22
16:55 1016 30 845 24.95 31 87.7 9 -5.6 22
17:00 1016 30 845 24.95 31 87.8 8 -7.2 19.1
17:05 1016 30 845 24.95 31 87.8 8 -6.7 19.9
17:10 1016 30 845 24.95 30.8 87.5 9 -6 21.3
17:15 1016 30 845 24.95 30.8 87.4 9 -5.9 21.3
17:20 1016 30 845 24.95 30.8 87.5 8 -6.3 20.7
17:25 1016 30 845 24.95 30.9 87.6 9 -6 21.2
17:30 1016 30 845 24.95 30.9 87.7 9 -4.8 23.4
17:35 1016 30 845 24.95 30.9 87.7 9 -5.1 22.8
17:40 1016 30 845 24.95 30.7 87.3 9 -5.5 22.1
17:45 1016 30 845 24.95 30.6 87 9 -5.4 22.2
17:50 1016 30 845 24.95 30.4 86.8 10 -4.7 23.5
17:55 1016 30 845 24.95 30.4 86.6 10 -3.8 25.1
18:00 1016 30 845 24.95 30.4 86.6 11 -3.7 25.4
18:05 1016 30 845 24.95 30.1 86.2 10 -4.7 23.6
18:10 1016 30 845 24.95 29.9 85.9 10 -4.2 24.5
18:15 1016 30 846 24.98 29.7 85.5 10 -4.2 24.4
18:20 1016 30 846 24.98 29.5 85.1 10 -4.8 23.4
18:25 1016 30 846 24.98 29.1 84.4 11 -4.4 24.1
18:30 1016 30 846 24.98 29 84.3 12 -3.4 25.9
18:35 1017 30.03 846 24.98 28.9 84 11 -4 24.8
18:40 1017 30.03 846 24.98 28.6 83.4 11 -4.2 24.4
18:45 1017 30.03 846 24.98 28.4 83 11 -4.4 24.1
18:50 1017 30.03 846 24.98 28.3 82.9 12 -3.7 25.3
18:55 1017 30.03 846 24.98 28.2 82.7 12 -3.8 25.2
19:00 1017 30.03 846 24.98 28 82.4 13 -3.1 26.4
19:05 1017 30.03 846 24.98 27.8 82 12 -3.9 24.9
19:10 1017 30.03 846 24.98 27.6 81.6 12 -4.1 24.6
19:15 1017 30.03 846 24.98 27.4 81.3 12 -3.8 25.1
19:20 1017 30.03 846 24.98 27.3 81.2 12 -4 24.8
19:25 1017 30.03 846 24.98 27.2 80.9 12 -4 24.7
19:30 1017 30.03 846 24.98 27 80.5 12 -4.4 24.1
19:35 1017 30.03 846 24.98 26.8 80.2 13 -3.4 25.8
19:40 1017 30.03 846 24.98 26.5 79.7 13 -4.1 24.7
19:45 1017 30.03 846 24.98 26.5 79.7 13 -4.1 24.7
19:50 1017 30.03 847 25.01 26.3 79.4 16 -1.6 29.1
19:55 1017 30.03 847 25.01 26.1 78.9 15 -2.3 27.9
20:00 1017 30.03 847 25.01 25.8 78.4 16 -1.5 29.4
20:05 1018 30.06 847 25.01 25 77 18 -0.5 31.1
20:10 1018 30.06 847 25.01 24.3 75.8 20 -0.2 31.7
20:15 1018 30.06 847 25.01 23.7 74.7 21 0.2 32.3
20:20 1018 30.06 847 25.01 23.5 74.3 20 -0.7 30.7
20:25 1018 30.06 847 25.01 23.2 73.8 26 3 37.4
20:30 1018 30.06 847 25.01 22 71.6 31 4.4 39.9
20:35 1018 30.06 847 25.01 20.8 69.4 32 3.4 38.2
20:40 1018 30.06 847 25.01 20.3 68.6 29 1.9 35.3
20:45 1018 30.06 847 25.01 20.7 69.2 29 2 35.6
20:50 1018 30.06 847 25.01 20.7 69.3 27 1.3 34.3
20:55 1018 30.06 848 25.04 20.5 68.9 28 1.6 34.8
21:00 1018 30.06 848 25.04 20.5 68.8 27 0.9 33.6
21:05 1019 30.09 848 25.04 20.3 68.5 29 1.7 35
21:10 1019 30.09 848 25.04 20 67.9 32 2.8 37.1
21:15 1019 30.09 848 25.04 19.8 67.6 29 1.4 34.4
21:20 1019 30.09 848 25.04 19.6 67.2 29 1.4 34.6
21:25 1019 30.09 848 25.04 19.2 66.6 28 0.5 32.9
21:30 1019 30.09 848 25.04 19.3 66.7 27 0 32
21:35 1019 30.09 848 25.04 19.2 66.6 27 -0.1 31.8
21:40 1019 30.09 848 25.04 19.3 66.8 27 -0.2 31.6
21:45 1019 30.09 848 25.04 19.3 66.8 29 0.9 33.6
21:50 1019 30.09 848 25.04 18.7 65.7 31 1.4 34.5
21:55 1019 30.09 848 25.04 18.4 65.1 28 -0.3 31.5
22:00 1019 30.09 848 25.04 18.7 65.7 27 -0.3 31.4
22:05 1019 30.09 848 25.04 18.8 65.8 27 -0.4 31.2
22:10 1019 30.09 849 25.07 18.7 65.6 28 -0.3 31.5
22:15 1019 30.09 849 25.07 18.2 64.7 29 0.2 32.3
22:20 1019 30.09 849 25.07 17.7 63.8 28 -0.7 30.7
22:25 1019 30.09 849 25.07 18.1 64.7 26 -1.5 29.3
22:30 1019 30.09 849 25.07 18.9 66 25 -1.6 29.1
22:35 1020 30.12 849 25.07 18.7 65.6 25 -1.4 29.4
22:40 1020 30.12 849 25.07 18.6 65.5 25 -1.7 28.9
22:45 1020 30.12 849 25.07 18.5 65.3 26 -1.4 29.6
22:50 1020 30.12 849 25.07 17.8 64.1 28 -0.7 30.7
22:55 1020 30.12 849 25.07 17.4 63.4 28 -1.4 29.5
23:00 1020 30.12 849 25.07 18.4 65.2 26 -1.5 29.3
23:05 1020 30.12 849 25.07 18.6 65.5 25 -1.4 29.4
23:10 1020 30.12 849 25.07 18.8 65.8 26 -0.9 30.4
23:15 1020 30.12 849 25.07 18.9 66 26 -0.8 30.6
23:20 1020 30.12 849 25.07 19.2 66.6 26 -0.5 31
23:25 1020 30.12 849 25.07 19.7 67.4 27 0.1 32.2
23:30 1020 30.12 849 25.07 19.6 67.3 27 0.3 32.6
23:35 1020 30.12 849 25.07 19.9 67.7 28 0.7 33.3
23:40 1020 30.12 849 25.07 19.9 67.9 28 1 33.8
23:45 1020 30.12 849 25.07 19.9 67.8 28 1 33.8
23:50 1020 30.12 849 25.07 19.8 67.7 28 1.1 34
23:55 1020 30.12 849 25.07 19.9 67.7 28 1 33.9
24:00 1020 30.12 849 25.07 20 68 28 1.1 33.9